Time;durP1;ratioP1;P1;durP2;ratioP2;P2;SDS_P1;SDS_P2;PMS_P1;PMS_P2;Temp;Humidity;BMP_temperature;BMP_pressure;BME280_temperature;BME280_humidity;BME280_pressure;Samples;Min_cycle;Max_cycle;Signal;HPM_P1;HPM_P2
2022/12/22 03:26:15;;;;;;;22.15;16.30;;;10.00;96.60;;;;;;4992057;28;20429;-74
2022/12/22 03:28:41;;;;;;;18.33;14.43;;;10.00;96.60;;;;;;4992763;28;20038;-76
2022/12/22 03:31:07;;;;;;;22.67;16.75;;;10.00;96.60;;;;;;4989009;28;20648;-77
2022/12/22 03:33:33;;;;;;;21.88;16.08;;;9.90;96.60;;;;;;4993680;28;20120;-75
2022/12/22 03:35:59;;;;;;;22.23;15.82;;;9.90;96.60;;;;;;4990156;28;20038;-76
2022/12/22 03:38:25;;;;;;;19.67;15.80;;;9.90;96.60;;;;;;4994912;28;20485;-75
2022/12/22 03:40:51;;;;;;;18.90;14.90;;;9.90;96.60;;;;;;4993165;28;20038;-77
2022/12/22 03:46:35;;;;;;;22.05;16.42;;;9.80;96.60;;;;;;4991538;28;20041;-76
2022/12/22 03:49:08;;;;;;;18.65;14.63;;;9.80;96.70;;;;;;4995334;28;20037;-75
2022/12/22 03:51:45;;;;;;;19.50;15.23;;;9.80;96.70;;;;;;4994521;28;20069;-77
2022/12/22 03:54:13;;;;;;;21.42;16.50;;;9.80;96.70;;;;;;4995221;28;20030;-74
2022/12/22 03:56:39;;;;;;;29.63;19.25;;;9.80;96.70;;;;;;4994806;28;20033;-78
2022/12/22 03:59:05;;;;;;;30.05;20.40;;;9.80;96.70;;;;;;4993640;28;20358;-77
2022/12/22 04:01:35;;;;;;;28.95;21.13;;;9.80;96.70;;;;;;4994505;28;20041;-75
2022/12/22 04:04:01;;;;;;;30.75;20.90;;;9.90;96.70;;;;;;4994367;28;20038;-77
2022/12/22 04:06:26;;;;;;;32.58;21.98;;;9.90;96.70;;;;;;5001865;28;20052;-78
2022/12/22 04:08:52;;;;;;;31.20;22.08;;;9.90;96.70;;;;;;4997670;28;20385;-77
2022/12/22 04:14:03;;;;;;;29.20;20.00;;;9.90;96.70;;;;;;4995176;28;20056;-75
2022/12/22 04:16:29;;;;;;;30.92;21.02;;;9.90;96.60;;;;;;4994797;28;20482;-78
2022/12/22 04:18:56;;;;;;;32.65;21.95;;;9.90;96.60;;;;;;4998124;28;20436;-77
2022/12/22 04:21:21;;;;;;;34.85;23.35;;;9.90;96.50;;;;;;4993730;28;20389;-77
2022/12/22 04:23:50;;;;;;;39.13;25.63;;;9.90;96.60;;;;;;4997493;28;20389;-77
2022/12/22 04:26:20;;;;;;;39.75;26.25;;;9.90;96.60;;;;;;4998546;28;20049;-77
2022/12/22 04:28:46;;;;;;;43.17;26.75;;;9.90;96.60;;;;;;4996370;28;20034;-77
2022/12/22 04:31:12;;;;;;;46.05;28.27;;;10.00;96.60;;;;;;4994903;28;20042;-76
2022/12/22 04:33:37;;;;;;;48.03;29.40;;;10.00;96.60;;;;;;4994832;28;20046;-78
2022/12/22 04:36:04;;;;;;;50.88;29.55;;;10.00;96.60;;;;;;4994389;28;20044;-73
2022/12/22 04:38:29;;;;;;;48.85;29.73;;;10.00;96.60;;;;;;4995446;28;20053;-76
2022/12/22 04:40:55;;;;;;;53.03;31.90;;;10.00;96.60;;;;;;4992920;28;20084;-76
2022/12/22 04:43:21;;;;;;;53.38;30.30;;;10.10;96.70;;;;;;4994814;28;20044;-73
2022/12/22 04:45:46;;;;;;;54.83;32.72;;;10.10;96.70;;;;;;4994108;28;20030;-77
2022/12/22 04:48:12;;;;;;;53.22;30.95;;;10.10;96.70;;;;;;4994011;28;20482;-75
2022/12/22 04:50:38;;;;;;;52.28;31.48;;;10.10;96.70;;;;;;4994804;28;20577;-77
2022/12/22 04:53:03;;;;;;;50.67;30.38;;;10.10;96.70;;;;;;4989723;28;20037;-77
2022/12/22 04:55:29;;;;;;;44.05;29.02;;;10.10;96.70;;;;;;4992829;28;20033;-75
2022/12/22 04:57:54;;;;;;;45.13;27.70;;;10.10;96.80;;;;;;4995025;28;20080;-77
2022/12/22 05:00:20;;;;;;;45.65;27.55;;;10.10;96.80;;;;;;4993196;28;20156;-76
2022/12/22 05:02:46;;;;;;;48.65;26.85;;;10.10;96.70;;;;;;4995081;28;20127;-76
2022/12/22 05:05:11;;;;;;;44.28;24.73;;;10.10;96.80;;;;;;4983562;28;20042;-77
2022/12/22 05:07:37;;;;;;;45.65;26.05;;;10.10;96.80;;;;;;4993473;28;20068;-75
2022/12/22 05:10:04;;;;;;;39.75;23.13;;;10.10;96.80;;;;;;4993789;28;20030;-77
2022/12/22 05:15:14;;;;;;;39.90;23.50;;;10.10;96.80;;;;;;4994272;28;20084;-74
2022/12/22 05:17:39;;;;;;;43.50;24.88;;;10.10;96.80;;;;;;4994070;28;20113;-77
2022/12/22 05:20:06;;;;;;;45.20;25.35;;;10.10;96.90;;;;;;4978444;28;20039;-77
2022/12/22 05:22:31;;;;;;;43.05;24.58;;;10.00;96.80;;;;;;4993455;28;20026;-76
2022/12/22 05:24:57;;;;;;;43.67;24.73;;;10.00;96.80;;;;;;4993940;28;20037;-75
2022/12/22 05:27:23;;;;;;;49.60;25.40;;;10.00;96.80;;;;;;4993382;28;20213;-77
2022/12/22 05:29:48;;;;;;;42.72;23.75;;;10.00;96.80;;;;;;4994653;28;20164;-77
2022/12/22 05:32:14;;;;;;;45.08;25.23;;;10.00;96.90;;;;;;4992376;28;20076;-77
2022/12/22 05:34:39;;;;;;;45.05;25.92;;;10.00;96.90;;;;;;4986051;28;20470;-75
2022/12/22 05:37:05;;;;;;;48.45;25.60;;;9.90;96.80;;;;;;4991301;28;20069;-74
2022/12/22 05:39:31;;;;;;;54.65;29.52;;;9.90;96.90;;;;;;4993492;28;20045;-73
2022/12/22 05:41:56;;;;;;;56.30;29.15;;;9.90;96.90;;;;;;4991434;28;20554;-75
2022/12/22 05:44:22;;;;;;;55.72;29.00;;;9.90;96.80;;;;;;4994704;28;20038;-77
2022/12/22 05:46:51;;;;;;;61.25;30.17;;;9.90;96.90;;;;;;4992925;28;20038;-75
2022/12/22 05:49:17;;;;;;;62.58;32.00;;;9.90;96.90;;;;;;4994224;28;20122;-77
2022/12/22 05:51:42;;;;;;;59.92;31.50;;;9.90;96.90;;;;;;4987665;28;20380;-75
2022/12/22 05:54:09;;;;;;;64.20;30.83;;;9.90;96.90;;;;;;4984344;28;20034;-77
2022/12/22 05:56:35;;;;;;;60.05;32.30;;;9.90;96.80;;;;;;4992685;28;20049;-74
2022/12/22 05:59:00;;;;;;;63.42;31.25;;;9.90;96.90;;;;;;4994141;28;20452;-76
2022/12/22 06:01:26;;;;;;;60.97;31.60;;;9.90;96.80;;;;;;4989617;28;20052;-77
2022/12/22 06:03:52;;;;;;;57.35;30.55;;;9.90;96.80;;;;;;4993958;28;20048;-75
2022/12/22 06:06:17;;;;;;;59.75;29.98;;;9.80;96.80;;;;;;4989508;28;20033;-73
2022/12/22 06:08:43;;;;;;;57.50;29.27;;;9.90;96.80;;;;;;4992721;28;20038;-75
2022/12/22 06:11:08;;;;;;;58.60;29.90;;;9.80;96.80;;;;;;4994586;28;20046;-77
2022/12/22 06:13:34;;;;;;;53.63;28.33;;;9.90;96.80;;;;;;4992637;28;20061;-77
2022/12/22 06:16:00;;;;;;;53.50;28.45;;;9.80;96.80;;;;;;4991894;28;20413;-74
2022/12/22 06:18:25;;;;;;;61.13;29.70;;;9.80;96.80;;;;;;4984717;28;20033;-75
2022/12/22 06:20:52;;;;;;;53.97;28.27;;;9.80;96.80;;;;;;4992818;28;20038;-75
2022/12/22 06:23:18;;;;;;;58.70;30.02;;;9.80;96.80;;;;;;4992619;28;20042;-75
2022/12/22 06:25:56;;;;;;;58.17;29.27;;;9.70;96.80;;;;;;4993190;28;20034;-77
2022/12/22 06:28:21;;;;;;;56.13;29.08;;;9.80;96.80;;;;;;4992983;28;20365;-78
2022/12/22 06:30:48;;;;;;;51.50;27.50;;;9.70;96.80;;;;;;4991917;28;20034;-76
2022/12/22 06:33:13;;;;;;;53.58;28.98;;;9.70;96.80;;;;;;4992808;28;20490;-73
2022/12/22 06:35:39;;;;;;;50.42;26.38;;;9.70;96.80;;;;;;4990422;28;20026;-76
2022/12/22 06:38:05;;;;;;;50.20;26.88;;;9.70;96.70;;;;;;4993750;28;20077;-77
2022/12/22 06:40:30;;;;;;;52.55;27.80;;;9.70;96.80;;;;;;4992966;28;20703;-77
2022/12/22 06:43:08;;;;;;;49.38;27.67;;;9.70;96.70;;;;;;4983944;28;20049;-79
2022/12/22 06:45:35;;;;;;;56.38;28.38;;;9.70;96.80;;;;;;4989806;28;21088;-76
2022/12/22 06:48:01;;;;;;;53.95;27.75;;;9.70;96.70;;;;;;4991438;28;20065;-77
2022/12/22 06:50:27;;;;;;;54.40;28.67;;;9.70;96.80;;;;;;4991081;28;20034;-77
2022/12/22 06:52:52;;;;;;;53.25;28.02;;;9.70;96.70;;;;;;4990708;28;20030;-77
2022/12/22 06:55:18;;;;;;;59.55;30.58;;;9.70;96.70;;;;;;4991337;28;20960;-77
2022/12/22 06:57:44;;;;;;;61.00;31.42;;;9.70;96.70;;;;;;4991374;28;20049;-78
2022/12/22 07:00:10;;;;;;;58.33;30.75;;;9.70;96.70;;;;;;4990484;28;20042;-75
2022/12/22 07:02:35;;;;;;;63.28;33.10;;;9.70;96.70;;;;;;4988412;28;20280;-79
2022/12/22 07:05:01;;;;;;;59.67;31.98;;;9.60;96.70;;;;;;4989790;28;20077;-75
2022/12/22 07:07:27;;;;;;;56.78;30.73;;;9.70;96.70;;;;;;4992596;28;20039;-75
2022/12/22 07:09:54;;;;;;;59.38;31.73;;;9.60;96.60;;;;;;4991301;28;20113;-78
2022/12/22 07:12:20;;;;;;;58.92;32.05;;;9.60;96.50;;;;;;4993658;28;20180;-74
2022/12/22 07:14:46;;;;;;;61.95;33.17;;;9.60;96.50;;;;;;4997987;28;20116;-78
2022/12/22 07:17:11;;;;;;;64.00;34.08;;;9.60;96.50;;;;;;4992612;28;20077;-76
2022/12/22 07:19:37;;;;;;;61.83;32.25;;;9.60;96.50;;;;;;4996498;28;20359;-73
2022/12/22 07:22:03;;;;;;;58.28;33.45;;;9.60;96.40;;;;;;4996800;28;20452;-73
2022/12/22 07:24:28;;;;;;;54.10;32.15;;;9.60;96.40;;;;;;4997486;28;20113;-73
2022/12/22 07:26:54;;;;;;;55.42;34.05;;;9.60;96.40;;;;;;4995553;28;20066;-77
2022/12/22 07:29:20;;;;;;;55.20;33.80;;;9.60;96.40;;;;;;4998308;28;20022;-75
2022/12/22 07:31:45;;;;;;;61.92;35.25;;;9.60;96.40;;;;;;4994784;28;20057;-74
2022/12/22 07:34:12;;;;;;;59.22;37.22;;;9.60;96.30;;;;;;4995095;28;20533;-74
2022/12/22 07:36:37;;;;;;;61.95;36.42;;;9.50;96.20;;;;;;4995384;28;20042;-73
2022/12/22 07:39:03;;;;;;;63.35;38.90;;;9.50;96.20;;;;;;4995798;28;20077;-75
2022/12/22 07:44:13;;;;;;;58.33;35.92;;;9.40;96.10;;;;;;4993149;28;20626;-76
2022/12/22 07:46:39;;;;;;;56.15;35.38;;;9.40;96.10;;;;;;4993773;28;20121;-74
2022/12/22 07:51:50;;;;;;;51.13;35.22;;;9.40;96.10;;;;;;4994038;28;20049;-73
2022/12/22 07:54:16;;;;;;;49.50;34.22;;;9.40;96.10;;;;;;4995386;28;20030;-75
2022/12/22 07:56:44;;;;;;;54.83;34.67;;;9.40;96.00;;;;;;4992621;28;20046;-74
2022/12/22 07:59:10;;;;;;;50.30;32.65;;;9.40;96.00;;;;;;4993042;28;20861;-74
2022/12/22 08:01:36;;;;;;;54.78;34.85;;;9.40;95.90;;;;;;4993641;28;20246;-74
2022/12/22 08:04:02;;;;;;;52.13;34.60;;;9.30;95.80;;;;;;4987426;28;20410;-74
2022/12/22 08:06:28;;;;;;;53.90;34.38;;;9.30;95.80;;;;;;4990741;28;20763;-74
2022/12/22 08:08:54;;;;;;;61.67;38.47;;;9.30;95.80;;;;;;4992055;28;20034;-73
2022/12/22 08:11:20;;;;;;;67.38;38.05;;;9.30;95.70;;;;;;4991115;28;20479;-73
2022/12/22 08:13:45;;;;;;;64.05;39.25;;;9.20;95.50;;;;;;4990247;28;20045;-74
2022/12/22 08:16:13;;;;;;;71.47;42.63;;;9.10;95.30;;;;;;4989705;28;20938;-75
2022/12/22 08:18:39;;;;;;;78.43;44.70;;;9.10;95.20;;;;;;4992585;28;20030;-74
2022/12/22 08:21:06;;;;;;;82.50;46.53;;;9.00;95.20;;;;;;4989838;28;20041;-76
2022/12/22 08:23:32;;;;;;;81.57;51.95;;;9.00;95.20;;;;;;4989746;28;20038;-76
2022/12/22 08:26:05;;;;;;;81.30;49.88;;;9.00;95.00;;;;;;4988542;28;20497;-74
2022/12/22 08:28:36;;;;;;;85.75;51.10;;;9.00;94.90;;;;;;4990516;28;20038;-73
2022/12/22 08:31:03;;;;;;;92.47;54.17;;;9.00;95.00;;;;;;4990406;28;20115;-74
2022/12/22 08:33:28;;;;;;;92.45;56.67;;;8.90;94.90;;;;;;4991240;28;20069;-75
2022/12/22 08:35:56;;;;;;;90.30;55.25;;;8.90;94.90;;;;;;4995144;28;20037;-72
2022/12/22 08:38:22;;;;;;;85.00;52.67;;;8.90;94.80;;;;;;4994846;28;20050;-71
2022/12/22 08:40:48;;;;;;;75.50;48.42;;;8.90;94.80;;;;;;4989790;28;20546;-74
2022/12/22 08:43:15;;;;;;;71.00;44.95;;;8.90;94.40;;;;;;4990827;28;20038;-74
2022/12/22 08:45:41;;;;;;;71.68;44.20;;;8.90;94.30;;;;;;4991713;28;20038;-72
2022/12/22 08:48:09;;;;;;;68.25;42.75;;;8.90;94.20;;;;;;4988883;28;20100;-72
2022/12/22 08:50:35;;;;;;;75.20;45.42;;;8.90;94.10;;;;;;4992699;28;20210;-74
2022/12/22 08:53:05;;;;;;;74.97;46.13;;;8.90;94.00;;;;;;4992289;28;20046;-74
2022/12/22 08:55:31;;;;;;;71.10;44.97;;;8.80;93.90;;;;;;4990534;28;20037;-74
2022/12/22 08:57:57;;;;;;;74.72;42.95;;;8.90;94.00;;;;;;4992183;28;20041;-73
2022/12/22 09:00:23;;;;;;;67.70;39.45;;;8.90;93.90;;;;;;4988886;28;20037;-73
2022/12/22 09:02:49;;;;;;;64.32;40.95;;;8.90;93.90;;;;;;4992521;28;20042;-73
2022/12/22 09:05:15;;;;;;;56.65;37.50;;;8.90;93.80;;;;;;4992259;28;20721;-75
2022/12/22 09:07:40;;;;;;;54.50;37.95;;;8.90;93.80;;;;;;4990509;28;20118;-74
2022/12/22 09:10:10;;;;;;;48.65;33.20;;;8.90;93.70;;;;;;5006596;28;20035;-74
2022/12/22 09:12:35;;;;;;;46.67;31.65;;;8.90;93.70;;;;;;4993021;28;20129;-72
2022/12/22 09:15:01;;;;;;;47.05;33.33;;;8.90;93.60;;;;;;4993566;28;20378;-71
2022/12/22 09:17:27;;;;;;;49.80;34.90;;;8.90;93.60;;;;;;4995365;28;20045;-74
2022/12/22 09:19:52;;;;;;;46.70;33.22;;;9.00;93.60;;;;;;4994333;28;20042;-75
2022/12/22 09:22:18;;;;;;;47.20;32.40;;;9.00;93.70;;;;;;4992222;28;20458;-74
2022/12/22 09:24:44;;;;;;;47.65;31.83;;;9.10;93.70;;;;;;4995506;28;20873;-73
2022/12/22 09:27:09;;;;;;;46.00;31.58;;;9.10;93.60;;;;;;4992827;28;20049;-74
2022/12/22 09:29:36;;;;;;;43.55;30.25;;;9.10;93.60;;;;;;4992957;28;20030;-73
2022/12/22 09:32:02;;;;;;;36.00;28.00;;;9.20;93.50;;;;;;4991806;28;20026;-73
2022/12/22 09:34:28;;;;;;;40.53;26.73;;;9.20;93.50;;;;;;4991137;28;20038;-74
2022/12/22 09:36:54;;;;;;;42.90;27.63;;;9.20;93.40;;;;;;4994436;28;20391;-73
2022/12/22 09:39:20;;;;;;;38.80;27.50;;;9.30;93.40;;;;;;4997493;28;20033;-74
2022/12/22 09:41:50;;;;;;;39.08;25.60;;;9.30;93.30;;;;;;4996007;28;20050;-73
2022/12/22 09:44:40;;;;;;;31.50;24.15;;;9.40;93.40;;;;;;4994919;28;20049;-74
2022/12/22 09:47:32;;;;;;;35.25;23.17;;;9.50;93.40;;;;;;4989257;28;20034;-72
2022/12/22 09:49:58;;;;;;;30.98;22.45;;;9.70;93.10;;;;;;4992454;28;20038;-75
2022/12/22 09:52:48;;;;;;;29.60;21.65;;;9.80;92.70;;;;;;4987754;28;20133;-74
2022/12/22 09:55:22;;;;;;;29.63;19.10;;;9.90;92.30;;;;;;4973047;28;20033;-72
2022/12/22 09:57:48;;;;;;;;;;;10.10;92.20;;;;;;4992023;28;20054;-73
2022/12/22 10:00:16;;;;;;;25.98;18.23;;;10.10;91.60;;;;;;4995781;28;19922;-73
2022/12/22 10:02:51;;;;;;;24.50;17.10;;;10.10;91.20;;;;;;4996781;28;20038;-74
2022/12/22 10:05:29;;;;;;;27.77;18.23;;;10.20;91.10;;;;;;4991037;28;20172;-73
2022/12/22 10:08:08;;;;;;;22.35;16.85;;;10.40;90.60;;;;;;4993606;28;20043;-74
2022/12/22 10:10:33;;;;;;;24.48;16.35;;;10.50;90.60;;;;;;4994122;28;20037;-73
2022/12/22 10:13:02;;;;;;;18.88;14.40;;;10.60;90.10;;;;;;4987993;28;20529;-73
2022/12/22 10:15:40;;;;;;;20.25;14.40;;;10.60;89.50;;;;;;4983010;28;20045;-72
2022/12/22 10:18:18;;;;;;;18.27;12.88;;;10.60;89.40;;;;;;4981185;28;20557;-73
2022/12/22 10:20:46;;;;;;;18.05;12.85;;;10.70;89.30;;;;;;4992858;28;20034;-73
2022/12/22 10:23:14;;;;;;;16.83;12.30;;;10.80;89.20;;;;;;4990070;28;20030;-72
2022/12/22 10:25:53;;;;;;;19.13;11.50;;;10.90;89.10;;;;;;4990669;28;20493;-73
2022/12/22 10:28:23;;;;;;;18.65;12.00;;;11.00;88.60;;;;;;4989156;28;20034;-73
2022/12/22 10:30:48;;;;;;;19.77;13.20;;;11.00;88.50;;;;;;4991727;28;20469;-73
2022/12/22 10:33:16;;;;;;;19.95;11.88;;;10.90;88.30;;;;;;4988744;28;20045;-73
2022/12/22 10:35:51;;;;;;;17.42;11.52;;;10.80;88.60;;;;;;4990878;28;20025;-73
2022/12/22 10:38:28;;;;;;;18.23;12.10;;;10.80;88.60;;;;;;4986798;28;20046;-73
2022/12/22 10:41:03;;;;;;;19.13;12.70;;;10.80;88.60;;;;;;5003562;28;20050;-73
2022/12/22 10:43:33;;;;;;;20.25;12.45;;;10.90;88.80;;;;;;4991656;28;20084;-73
2022/12/22 10:46:00;;;;;;;20.23;12.63;;;10.80;88.90;;;;;;4985441;28;20125;-71
2022/12/22 10:48:44;;;;;;;17.00;12.23;;;10.80;89.40;;;;;;4988148;28;20038;-71
2022/12/22 10:51:12;;;;;;;21.33;12.20;;;10.90;89.50;;;;;;4985163;28;20063;-72
2022/12/22 10:53:50;;;;;;;22.85;11.48;;;11.00;89.30;;;;;;4992065;28;20026;-72
2022/12/22 10:56:26;;;;;;;16.88;11.82;;;11.10;89.00;;;;;;4987578;28;20041;-72
2022/12/22 10:59:15;;;;;;;16.90;11.00;;;11.20;89.00;;;;;;4982295;28;20034;-74
2022/12/22 11:01:40;;;;;;;15.32;11.18;;;11.30;88.60;;;;;;4990391;28;20037;-75
2022/12/22 11:04:26;;;;;;;18.88;12.07;;;11.30;87.80;;;;;;4994970;28;20275;-75
2022/12/22 11:06:53;;;;;;;17.00;10.88;;;11.30;88.00;;;;;;4991701;28;20049;-76
2022/12/22 11:09:20;;;;;;;16.50;10.63;;;11.20;88.20;;;;;;4988624;28;20042;-76
2022/12/22 11:11:50;;;;;;;15.75;10.65;;;11.10;88.00;;;;;;4991296;28;20029;-74
2022/12/22 11:14:32;;;;;;;17.55;11.82;;;11.00;88.60;;;;;;4987989;28;20048;-74
2022/12/22 11:17:22;;;;;;;16.17;10.00;;;11.00;88.80;;;;;;4989051;28;20034;-73
2022/12/22 11:20:15;;;;;;;15.65;10.00;;;11.00;88.80;;;;;;4982619;28;20031;-74
2022/12/22 11:23:04;;;;;;;15.27;9.70;;;11.10;88.60;;;;;;4982421;28;20042;-74
2022/12/22 11:26:02;;;;;;;15.48;10.05;;;11.10;88.90;;;;;;4967216;28;20042;-74
2022/12/22 11:28:59;;;;;;;14.15;9.23;;;11.10;88.70;;;;;;4972575;28;20026;-74
2022/12/22 11:31:33;;;;;;;15.35;9.18;;;11.10;88.80;;;;;;4972433;28;20322;-75
2022/12/22 11:34:39;;;;;;;12.80;9.15;;;11.00;88.50;;;;;;4976968;28;20304;-73
2022/12/22 11:37:52;;;;;;;13.20;8.73;;;11.00;89.00;;;;;;4977259;28;20129;-74
2022/12/22 11:40:30;;;;;;;12.85;8.93;;;10.90;89.10;;;;;;5004654;28;20025;-74
2022/12/22 11:43:25;;;;;;;13.02;8.85;;;10.90;89.00;;;;;;4999612;28;20034;-74
2022/12/22 11:46:08;;;;;;;15.88;11.90;;;10.90;89.20;;;;;;4913165;28;20513;-74
2022/12/22 11:48:45;;;;;;;11.82;8.52;;;10.90;89.30;;;;;;4977221;28;20054;-74
2022/12/22 11:51:31;;;;;;;15.20;8.60;;;10.90;89.40;;;;;;4979238;28;20065;-74
2022/12/22 11:54:17;;;;;;;11.63;7.18;;;10.90;89.10;;;;;;4978435;28;20050;-74
2022/12/22 11:57:04;;;;;;;11.20;6.85;;;10.70;89.30;;;;;;4977664;28;20120;-75
2022/12/22 11:59:44;;;;;;;13.43;7.53;;;10.70;89.60;;;;;;4979992;28;20034;-74
2022/12/22 12:02:21;;;;;;;11.50;7.25;;;10.60;89.80;;;;;;4975844;28;20553;-74
2022/12/22 12:05:08;;;;;;;12.10;7.18;;;10.60;90.10;;;;;;4983269;28;20046;-74
2022/12/22 12:07:40;;;;;;;11.32;7.10;;;10.60;90.20;;;;;;4977084;28;20050;-74
2022/12/22 12:10:17;;;;;;;12.55;7.38;;;10.60;90.20;;;;;;4980288;28;20105;-74
2022/12/22 12:12:58;;;;;;;12.35;7.15;;;10.60;90.40;;;;;;4982752;28;20061;-73
2022/12/22 12:15:37;;;;;;;12.23;7.78;;;10.50;90.70;;;;;;4971367;28;20073;-74
2022/12/22 12:18:40;;;;;;;16.65;8.48;;;10.50;91.00;;;;;;4977051;28;20076;-73
2022/12/22 12:21:49;;;;;;;12.48;8.10;;;10.40;91.20;;;;;;4974270;28;20460;-74
2022/12/22 12:24:27;;;;;;;14.35;8.13;;;10.40;91.50;;;;;;5008405;28;20049;-74
2022/12/22 12:27:18;;;;;;;15.65;9.13;;;10.30;91.80;;;;;;5000716;28;20037;-76
2022/12/22 12:30:11;;;;;;;12.60;8.60;;;10.30;91.80;;;;;;5000319;28;20034;-75
2022/12/22 12:32:58;;;;;;;14.02;8.93;;;10.20;92.00;;;;;;4999510;28;20069;-75
2022/12/22 12:35:50;;;;;;;14.32;9.15;;;10.20;92.00;;;;;;4991402;28;20431;-73
2022/12/22 12:38:52;;;;;;;12.88;8.98;;;10.20;92.30;;;;;;4995968;28;20165;-74
2022/12/22 12:41:40;;;;;;;12.43;8.20;;;10.20;92.40;;;;;;4994684;28;20058;-74
2022/12/22 12:44:15;;;;;;;14.02;8.48;;;10.20;92.70;;;;;;4992836;28;20124;-75
2022/12/22 12:46:49;;;;;;;16.48;12.25;;;10.20;92.70;;;;;;4994437;28;20454;-75
2022/12/22 12:49:33;;;;;;;;;;;10.20;93.00;;;;;;4975813;28;20292;-75
2022/12/22 12:52:11;;;;;;;23.83;15.07;;;10.10;93.20;;;;;;4973764;28;19931;-75
2022/12/22 12:54:47;;;;;;;31.40;22.27;;;10.20;93.30;;;;;;4974531;28;20219;-75
2022/12/22 12:57:46;;;;;;;19.25;15.55;;;10.20;93.40;;;;;;4969571;28;20035;-75
2022/12/22 13:00:33;;;;;;;16.80;12.82;;;10.30;93.40;;;;;;4978940;28;20038;-76
2022/12/22 13:02:59;;;;;;;15.93;11.25;;;10.30;93.50;;;;;;4977996;28;20483;-75
2022/12/22 13:05:35;;;;;;;16.73;11.80;;;10.30;93.50;;;;;;4977858;28;20038;-75
2022/12/22 13:08:36;;;;;;;17.60;11.98;;;10.40;93.60;;;;;;4978049;28;20042;-75
2022/12/22 13:11:02;;;;;;;16.75;11.68;;;10.40;93.60;;;;;;4977359;28;20069;-73
2022/12/22 13:13:27;;;;;;;18.38;11.68;;;10.50;93.70;;;;;;4976786;28;20047;-74
2022/12/22 13:16:02;;;;;;;14.70;10.60;;;10.50;93.60;;;;;;4978128;28;20160;-74
2022/12/22 13:18:33;;;;;;;16.92;11.30;;;10.50;93.60;;;;;;4973562;28;20050;-75
2022/12/22 13:21:05;;;;;;;16.10;10.63;;;10.60;93.60;;;;;;4971470;28;20600;-75
2022/12/22 13:23:37;;;;;;;16.05;11.20;;;10.60;93.50;;;;;;4971595;28;20384;-75
2022/12/22 13:26:08;;;;;;;15.32;11.15;;;10.60;93.50;;;;;;4970059;28;20121;-76
2022/12/22 13:28:36;;;;;;;17.92;12.27;;;10.70;93.50;;;;;;4974544;28;20509;-75
2022/12/22 13:31:14;;;;;;;15.93;10.82;;;10.70;93.40;;;;;;4966212;28;20510;-75
2022/12/22 13:33:43;;;;;;;17.15;11.95;;;10.70;93.50;;;;;;4978195;28;20416;-75
2022/12/22 13:36:17;;;;;;;20.27;10.90;;;10.70;93.50;;;;;;4977138;28;20498;-76
2022/12/22 13:38:42;;;;;;;17.40;10.52;;;10.70;93.60;;;;;;4978816;28;20054;-75
2022/12/22 13:41:19;;;;;;;14.40;10.35;;;10.80;93.60;;;;;;4980828;28;20030;-75
2022/12/22 13:43:54;;;;;;;17.95;11.00;;;10.80;93.60;;;;;;4976926;28;20034;-75
2022/12/22 13:46:20;;;;;;;15.73;10.40;;;10.80;93.70;;;;;;4976734;28;20030;-75
2022/12/22 13:48:48;;;;;;;17.20;10.70;;;10.80;93.70;;;;;;4975057;28;20045;-75
2022/12/22 13:51:27;;;;;;;16.85;10.85;;;10.90;93.70;;;;;;4980611;28;20042;-76
2022/12/22 13:53:56;;;;;;;17.20;11.45;;;10.90;93.70;;;;;;4973604;28;20112;-75
2022/12/22 13:56:34;;;;;;;19.40;11.25;;;10.90;93.70;;;;;;4971030;28;20046;-75
2022/12/22 13:59:01;;;;;;;21.65;12.95;;;10.90;93.80;;;;;;4979162;28;20045;-76
2022/12/22 14:01:28;;;;;;;21.17;13.45;;;10.90;93.70;;;;;;4978298;28;20439;-76
2022/12/22 14:04:00;;;;;;;25.33;16.48;;;10.90;93.80;;;;;;4974317;28;20038;-75
2022/12/22 14:06:37;;;;;;;32.50;19.25;;;10.90;93.80;;;;;;4992997;28;20372;-75
2022/12/22 14:09:21;;;;;;;23.10;12.60;;;11.00;93.90;;;;;;4990842;28;20415;-75
2022/12/22 14:12:00;;;;;;;20.92;12.18;;;11.00;93.90;;;;;;4990609;28;20030;-75
2022/12/22 14:14:38;;;;;;;18.25;11.73;;;11.10;93.90;;;;;;4996400;28;20950;-76
2022/12/22 14:17:35;;;;;;;21.23;11.98;;;11.10;93.90;;;;;;4995848;28;20385;-75
2022/12/22 14:20:16;;;;;;;20.70;10.82;;;11.10;93.90;;;;;;4995561;28;20041;-75
2022/12/22 14:22:50;;;;;;;20.75;11.75;;;11.10;93.90;;;;;;4996762;28;20045;-75
2022/12/22 14:25:20;;;;;;;17.88;11.00;;;11.10;93.90;;;;;;4993231;28;20312;-75
2022/12/22 14:27:56;;;;;;;19.08;10.43;;;11.10;93.90;;;;;;4995786;28;20125;-75
2022/12/22 14:30:35;;;;;;;26.58;11.00;;;11.10;94.00;;;;;;4995981;28;20064;-75
2022/12/22 14:33:16;;;;;;;22.58;12.60;;;11.10;94.00;;;;;;5001244;28;20084;-74
2022/12/22 14:35:42;;;;;;;27.95;12.15;;;11.10;94.00;;;;;;4993939;28;20073;-74
2022/12/22 14:38:24;;;;;;;26.92;10.63;;;11.10;94.00;;;;;;4991165;28;20538;-73
2022/12/22 14:40:52;;;;;;;28.73;11.00;;;11.10;94.00;;;;;;4992579;28;20041;-73
2022/12/22 14:43:22;;;;;;;30.42;11.07;;;11.10;94.00;;;;;;4984645;28;20026;-74
2022/12/22 14:45:50;;;;;;;31.08;10.10;;;11.20;94.00;;;;;;4992054;28;20050;-74
2022/12/22 14:48:24;;;;;;;35.38;11.98;;;11.20;94.00;;;;;;4990811;28;20037;-73
2022/12/22 14:50:51;;;;;;;27.63;12.25;;;11.20;94.00;;;;;;4991336;28;20034;-74
2022/12/22 14:53:27;;;;;;;34.92;12.00;;;11.20;93.90;;;;;;4999680;28;20030;-74
2022/12/22 14:55:53;;;;;;;43.50;13.00;;;11.20;94.00;;;;;;4982647;28;20050;-74
2022/12/22 14:58:27;;;;;;;42.33;12.02;;;11.20;94.00;;;;;;4995342;28;20046;-73
2022/12/22 15:01:12;;;;;;;;;;;11.20;94.00;;;;;;4995426;28;20034;-73
2022/12/22 15:03:39;;;;;;;49.72;11.98;;;11.30;94.10;;;;;;4994519;28;19920;-73
2022/12/22 15:06:23;;;;;;;42.13;12.32;;;11.20;94.10;;;;;;4997364;28;20041;-74
2022/12/22 15:08:53;;;;;;;43.33;12.15;;;11.30;94.20;;;;;;4994900;28;20048;-74
2022/12/22 15:11:22;;;;;;;47.13;13.48;;;11.20;94.20;;;;;;4992534;28;20489;-74
2022/12/22 15:13:50;;;;;;;48.42;13.20;;;11.20;94.30;;;;;;4997478;28;20431;-74
2022/12/22 15:16:20;;;;;;;38.67;13.05;;;11.20;94.30;;;;;;4992475;28;20112;-74
2022/12/22 15:18:47;;;;;;;48.67;13.60;;;11.20;94.30;;;;;;4993983;28;20096;-74
2022/12/22 15:21:14;;;;;;;40.67;12.80;;;11.20;94.40;;;;;;4993694;28;20030;-74
2022/12/22 15:23:40;;;;;;;52.38;13.32;;;11.20;94.50;;;;;;4997122;28;20038;-75
2022/12/22 15:26:08;;;;;;;50.70;13.70;;;11.20;94.60;;;;;;4985435;28;20045;-75
2022/12/22 15:28:34;;;;;;;46.20;13.18;;;11.20;94.60;;;;;;4993096;28;20030;-74
2022/12/22 15:31:01;;;;;;;46.75;12.90;;;11.20;94.70;;;;;;4997302;28;20030;-74
2022/12/22 15:33:27;;;;;;;64.88;13.80;;;11.10;94.70;;;;;;4995479;28;20042;-72
2022/12/22 15:35:52;;;;;;;48.15;12.18;;;11.10;94.80;;;;;;4994505;28;20048;-73
2022/12/22 15:38:20;;;;;;;51.00;13.68;;;11.10;94.90;;;;;;4996483;28;20177;-73
2022/12/22 15:40:47;;;;;;;51.85;15.73;;;11.10;94.90;;;;;;4999262;28;20042;-75
2022/12/22 15:43:13;;;;;;;58.50;14.90;;;11.10;95.00;;;;;;4998880;28;20541;-75
2022/12/22 15:45:40;;;;;;;53.75;13.52;;;11.10;95.10;;;;;;4998288;28;20038;-75
2022/12/22 15:48:11;;;;;;;53.95;14.02;;;11.10;95.10;;;;;;4996662;28;20112;-74
2022/12/22 15:50:40;;;;;;;49.90;13.27;;;11.10;95.20;;;;;;4994248;28;20049;-75
2022/12/22 15:53:10;;;;;;;47.90;12.98;;;11.10;95.10;;;;;;4996457;28;20038;-74
2022/12/22 15:55:41;;;;;;;51.78;14.88;;;11.10;95.20;;;;;;4987213;28;20038;-75
2022/12/22 15:58:11;;;;;;;60.88;14.68;;;11.10;95.20;;;;;;4991194;28;20483;-75
2022/12/22 16:00:37;;;;;;;62.80;14.40;;;11.20;95.20;;;;;;5001526;28;20038;-75
2022/12/22 16:03:04;;;;;;;51.80;14.18;;;11.10;95.10;;;;;;4995744;28;20107;-74
2022/12/22 16:05:30;;;;;;;56.38;14.65;;;11.10;95.20;;;;;;4991046;28;20038;-75
2022/12/22 16:07:56;;;;;;;69.60;18.05;;;11.10;95.20;;;;;;4992894;28;20041;-74
2022/12/22 16:10:27;;;;;;;58.08;17.63;;;11.10;95.30;;;;;;4992517;28;20463;-76
2022/12/22 16:12:59;;;;;;;72.70;20.02;;;11.10;95.20;;;;;;4992645;28;20046;-75
2022/12/22 16:15:30;;;;;;;67.10;20.48;;;11.10;95.20;;;;;;4993578;28;20045;-75
2022/12/22 16:17:56;;;;;;;70.45;20.77;;;11.10;95.30;;;;;;4994088;28;20038;-76
2022/12/22 16:20:23;;;;;;;71.13;17.67;;;11.10;95.30;;;;;;4992432;28;20037;-77
2022/12/22 16:22:51;;;;;;;67.35;16.77;;;11.10;95.30;;;;;;4983780;28;20035;-76
2022/12/22 16:25:22;;;;;;;51.72;14.75;;;11.10;95.30;;;;;;4992825;28;20050;-79
2022/12/22 16:27:48;;;;;;;57.63;15.32;;;11.10;95.30;;;;;;4990903;28;20452;-75
2022/12/22 16:30:22;;;;;;;63.83;14.82;;;11.10;95.30;;;;;;4986980;28;20057;-74
2022/12/22 16:32:48;;;;;;;61.85;14.85;;;11.10;95.30;;;;;;4996199;28;20050;-75